sensor_id;sensor_type;location;lat;lon;timestamp;temperature;humidity
46490;DHT22;32204;49.160;8.580;2024-02-26T00:02:18;8.90;92.40
46490;DHT22;32204;49.160;8.580;2024-02-26T00:04:44;9.00;51.80
46490;DHT22;32204;49.160;8.580;2024-02-26T00:07:09;9.10;21.90
46490;DHT22;32204;49.160;8.580;2024-02-26T00:09:35;9.10;49.00
46490;DHT22;32204;49.160;8.580;2024-02-26T00:12:03;9.00;31.50
46490;DHT22;32204;49.160;8.580;2024-02-26T00:14:29;9.00;65.00
46490;DHT22;32204;49.160;8.580;2024-02-26T00:16:55;9.00;48.10
46490;DHT22;32204;49.160;8.580;2024-02-26T00:19:21;9.00;68.40
46490;DHT22;32204;49.160;8.580;2024-02-26T00:21:46;9.10;92.90
46490;DHT22;32204;49.160;8.580;2024-02-26T00:24:12;9.20;71.40
46490;DHT22;32204;49.160;8.580;2024-02-26T00:26:37;9.30;90.70
46490;DHT22;32204;49.160;8.580;2024-02-26T00:29:03;9.20;20.80
46490;DHT22;32204;49.160;8.580;2024-02-26T00:31:29;8.90;89.80
46490;DHT22;32204;49.160;8.580;2024-02-26T00:33:54;8.90;99.90
46490;DHT22;32204;49.160;8.580;2024-02-26T00:36:20;8.90;99.90
46490;DHT22;32204;49.160;8.580;2024-02-26T00:38:45;9.00;99.90
46490;DHT22;32204;49.160;8.580;2024-02-26T00:41:19;9.10;58.30
46490;DHT22;32204;49.160;8.580;2024-02-26T00:43:45;9.20;6.50
46490;DHT22;32204;49.160;8.580;2024-02-26T00:46:10;9.30;57.90
46490;DHT22;32204;49.160;8.580;2024-02-26T00:48:36;9.40;9.50
46490;DHT22;32204;49.160;8.580;2024-02-26T00:51:03;9.40;3.80
46490;DHT22;32204;49.160;8.580;2024-02-26T00:53:30;9.40;1.00
46490;DHT22;32204;49.160;8.580;2024-02-26T00:55:56;9.40;1.00
46490;DHT22;32204;49.160;8.580;2024-02-26T00:58:24;9.50;1.00
46490;DHT22;32204;49.160;8.580;2024-02-26T01:00:50;9.50;1.00
46490;DHT22;32204;49.160;8.580;2024-02-26T01:03:15;9.50;1.00
46490;DHT22;32204;49.160;8.580;2024-02-26T01:05:42;9.50;1.00
46490;DHT22;32204;49.160;8.580;2024-02-26T01:08:07;9.40;1.00
46490;DHT22;32204;49.160;8.580;2024-02-26T01:10:33;9.40;1.00
46490;DHT22;32204;49.160;8.580;2024-02-26T01:12:59;9.40;1.00
46490;DHT22;32204;49.160;8.580;2024-02-26T01:15:25;9.30;1.00
46490;DHT22;32204;49.160;8.580;2024-02-26T01:17:51;9.30;12.60
46490;DHT22;32204;49.160;8.580;2024-02-26T01:20:16;9.40;99.10
46490;DHT22;32204;49.160;8.580;2024-02-26T01:22:43;9.40;99.90
46490;DHT22;32204;49.160;8.580;2024-02-26T01:25:09;9.40;99.90
46490;DHT22;32204;49.160;8.580;2024-02-26T01:27:36;9.50;99.90
46490;DHT22;32204;49.160;8.580;2024-02-26T01:30:05;9.40;1.00
46490;DHT22;32204;49.160;8.580;2024-02-26T01:32:31;9.40;1.00
46490;DHT22;32204;49.160;8.580;2024-02-26T01:34:57;9.30;99.90
46490;DHT22;32204;49.160;8.580;2024-02-26T01:37:22;9.30;1.00
46490;DHT22;32204;49.160;8.580;2024-02-26T01:39:48;9.40;99.90
46490;DHT22;32204;49.160;8.580;2024-02-26T01:42:14;9.30;98.80
46490;DHT22;32204;49.160;8.580;2024-02-26T01:44:39;9.30;99.90
46490;DHT22;32204;49.160;8.580;2024-02-26T01:47:11;9.30;1.00
46490;DHT22;32204;49.160;8.580;2024-02-26T01:49:37;9.20;1.00
46490;DHT22;32204;49.160;8.580;2024-02-26T01:52:05;9.20;1.00
46490;DHT22;32204;49.160;8.580;2024-02-26T01:54:32;9.10;1.00
46490;DHT22;32204;49.160;8.580;2024-02-26T01:57:00;9.00;1.00
46490;DHT22;32204;49.160;8.580;2024-02-26T01:59:26;9.20;65.00
46490;DHT22;32204;49.160;8.580;2024-02-26T02:01:55;9.30;99.90
46490;DHT22;32204;49.160;8.580;2024-02-26T02:04:23;9.40;99.90
46490;DHT22;32204;49.160;8.580;2024-02-26T02:06:50;9.50;99.90
46490;DHT22;32204;49.160;8.580;2024-02-26T02:09:18;9.50;1.00
46490;DHT22;32204;49.160;8.580;2024-02-26T02:11:43;9.40;99.90
46490;DHT22;32204;49.160;8.580;2024-02-26T02:14:10;9.40;99.90
46490;DHT22;32204;49.160;8.580;2024-02-26T02:16:35;9.40;1.00
46490;DHT22;32204;49.160;8.580;2024-02-26T02:19:01;9.40;99.90
46490;DHT22;32204;49.160;8.580;2024-02-26T02:21:27;9.30;99.90
46490;DHT22;32204;49.160;8.580;2024-02-26T02:23:52;9.30;99.90
46490;DHT22;32204;49.160;8.580;2024-02-26T02:26:18;9.30;99.90
46490;DHT22;32204;49.160;8.580;2024-02-26T02:28:45;9.20;1.00
46490;DHT22;32204;49.160;8.580;2024-02-26T02:31:11;9.20;99.90
46490;DHT22;32204;49.160;8.580;2024-02-26T02:33:37;9.20;99.90
46490;DHT22;32204;49.160;8.580;2024-02-26T02:36:03;9.30;99.90
46490;DHT22;32204;49.160;8.580;2024-02-26T02:38:29;9.40;99.90
46490;DHT22;32204;49.160;8.580;2024-02-26T02:40:56;9.40;99.90
46490;DHT22;32204;49.160;8.580;2024-02-26T02:43:21;9.40;38.20
46490;DHT22;32204;49.160;8.580;2024-02-26T02:45:47;9.40;1.00
46490;DHT22;32204;49.160;8.580;2024-02-26T02:48:13;9.40;97.90
46490;DHT22;32204;49.160;8.580;2024-02-26T02:50:38;9.30;1.00
46490;DHT22;32204;49.160;8.580;2024-02-26T02:53:04;9.40;1.00
46490;DHT22;32204;49.160;8.580;2024-02-26T02:55:30;9.40;1.00
46490;DHT22;32204;49.160;8.580;2024-02-26T02:57:55;9.40;99.90
46490;DHT22;32204;49.160;8.580;2024-02-26T03:00:21;9.40;99.90
46490;DHT22;32204;49.160;8.580;2024-02-26T03:02:49;9.40;1.80
46490;DHT22;32204;49.160;8.580;2024-02-26T03:05:15;9.30;99.90
46490;DHT22;32204;49.160;8.580;2024-02-26T03:07:41;9.20;1.00
46490;DHT22;32204;49.160;8.580;2024-02-26T03:10:07;9.20;1.00
46490;DHT22;32204;49.160;8.580;2024-02-26T03:12:34;9.10;1.00
46490;DHT22;32204;49.160;8.580;2024-02-26T03:15:00;9.10;99.90
46490;DHT22;32204;49.160;8.580;2024-02-26T03:17:29;9.20;99.90
46490;DHT22;32204;49.160;8.580;2024-02-26T03:19:55;9.20;99.90
46490;DHT22;32204;49.160;8.580;2024-02-26T03:22:21;9.30;99.90
46490;DHT22;32204;49.160;8.580;2024-02-26T03:24:47;9.40;1.00
46490;DHT22;32204;49.160;8.580;2024-02-26T03:27:13;9.30;99.90
46490;DHT22;32204;49.160;8.580;2024-02-26T03:29:38;9.20;1.00
46490;DHT22;32204;49.160;8.580;2024-02-26T03:32:05;9.00;99.90
46490;DHT22;32204;49.160;8.580;2024-02-26T03:34:32;8.90;99.90
46490;DHT22;32204;49.160;8.580;2024-02-26T03:36:59;8.70;1.00
46490;DHT22;32204;49.160;8.580;2024-02-26T03:39:25;8.60;99.90
46490;DHT22;32204;49.160;8.580;2024-02-26T03:41:50;8.60;99.90
46490;DHT22;32204;49.160;8.580;2024-02-26T03:44:16;8.70;1.00
46490;DHT22;32204;49.160;8.580;2024-02-26T03:46:42;8.60;99.90
46490;DHT22;32204;49.160;8.580;2024-02-26T03:49:10;8.50;99.90
46490;DHT22;32204;49.160;8.580;2024-02-26T03:51:36;8.40;35.60
46490;DHT22;32204;49.160;8.580;2024-02-26T03:54:03;8.40;1.00
46490;DHT22;32204;49.160;8.580;2024-02-26T03:56:28;8.30;18.50
46490;DHT22;32204;49.160;8.580;2024-02-26T03:58:54;8.20;99.90
46490;DHT22;32204;49.160;8.580;2024-02-26T04:01:19;8.10;99.90
46490;DHT22;32204;49.160;8.580;2024-02-26T04:03:45;8.00;1.00
46490;DHT22;32204;49.160;8.580;2024-02-26T04:06:11;7.90;1.00
46490;DHT22;32204;49.160;8.580;2024-02-26T04:08:40;7.80;1.00
46490;DHT22;32204;49.160;8.580;2024-02-26T04:11:05;7.80;1.00
46490;DHT22;32204;49.160;8.580;2024-02-26T04:13:35;7.80;30.30
46490;DHT22;32204;49.160;8.580;2024-02-26T04:16:00;7.70;70.60
46490;DHT22;32204;49.160;8.580;2024-02-26T04:18:29;7.70;90.80
46490;DHT22;32204;49.160;8.580;2024-02-26T04:20:54;7.70;99.90
46490;DHT22;32204;49.160;8.580;2024-02-26T04:23:20;7.60;99.90
46490;DHT22;32204;49.160;8.580;2024-02-26T04:25:45;7.60;99.90
46490;DHT22;32204;49.160;8.580;2024-02-26T04:28:12;7.60;99.90
46490;DHT22;32204;49.160;8.580;2024-02-26T04:30:37;7.60;99.90
46490;DHT22;32204;49.160;8.580;2024-02-26T04:33:03;7.70;99.90
46490;DHT22;32204;49.160;8.580;2024-02-26T04:35:29;7.70;68.20
46490;DHT22;32204;49.160;8.580;2024-02-26T04:37:55;7.70;34.60
46490;DHT22;32204;49.160;8.580;2024-02-26T04:40:20;7.60;78.10
46490;DHT22;32204;49.160;8.580;2024-02-26T04:42:46;7.60;54.40
46490;DHT22;32204;49.160;8.580;2024-02-26T04:45:11;7.70;25.70
46490;DHT22;32204;49.160;8.580;2024-02-26T04:47:37;7.70;3.40
46490;DHT22;32204;49.160;8.580;2024-02-26T04:50:03;7.80;1.00
46490;DHT22;32204;49.160;8.580;2024-02-26T04:52:28;7.90;15.10
46490;DHT22;32204;49.160;8.580;2024-02-26T04:54:54;8.00;1.00
46490;DHT22;32204;49.160;8.580;2024-02-26T04:57:21;8.00;1.00
46490;DHT22;32204;49.160;8.580;2024-02-26T04:59:46;8.10;1.00
46490;DHT22;32204;49.160;8.580;2024-02-26T05:02:12;8.10;1.00
46490;DHT22;32204;49.160;8.580;2024-02-26T05:04:38;8.10;1.00
46490;DHT22;32204;49.160;8.580;2024-02-26T05:07:04;8.20;1.00
46490;DHT22;32204;49.160;8.580;2024-02-26T05:09:30;8.40;1.00
46490;DHT22;32204;49.160;8.580;2024-02-26T05:11:55;8.40;1.00
46490;DHT22;32204;49.160;8.580;2024-02-26T05:14:21;8.50;1.00
46490;DHT22;32204;49.160;8.580;2024-02-26T05:16:47;8.60;1.00
46490;DHT22;32204;49.160;8.580;2024-02-26T05:19:13;8.50;1.00
46490;DHT22;32204;49.160;8.580;2024-02-26T05:21:39;8.60;1.00
46490;DHT22;32204;49.160;8.580;2024-02-26T05:24:06;8.70;1.00
46490;DHT22;32204;49.160;8.580;2024-02-26T05:26:31;8.90;1.00
46490;DHT22;32204;49.160;8.580;2024-02-26T05:28:57;8.90;99.90
46490;DHT22;32204;49.160;8.580;2024-02-26T05:31:26;8.80;99.90
46490;DHT22;32204;49.160;8.580;2024-02-26T05:33:51;8.80;99.90
46490;DHT22;32204;49.160;8.580;2024-02-26T05:36:21;8.70;99.90
46490;DHT22;32204;49.160;8.580;2024-02-26T05:38:48;8.80;99.90
46490;DHT22;32204;49.160;8.580;2024-02-26T05:41:17;8.70;99.90
46490;DHT22;32204;49.160;8.580;2024-02-26T05:43:51;8.70;99.90
46490;DHT22;32204;49.160;8.580;2024-02-26T05:46:17;8.70;99.90
46490;DHT22;32204;49.160;8.580;2024-02-26T05:48:44;8.70;99.90
46490;DHT22;32204;49.160;8.580;2024-02-26T05:51:09;8.70;99.90
46490;DHT22;32204;49.160;8.580;2024-02-26T05:53:35;8.70;99.90
46490;DHT22;32204;49.160;8.580;2024-02-26T05:56:00;8.70;99.90
46490;DHT22;32204;49.160;8.580;2024-02-26T05:58:26;8.50;99.90
46490;DHT22;32204;49.160;8.580;2024-02-26T06:00:52;8.50;99.90
46490;DHT22;32204;49.160;8.580;2024-02-26T06:03:17;8.40;99.90
46490;DHT22;32204;49.160;8.580;2024-02-26T06:05:43;8.40;1.00
46490;DHT22;32204;49.160;8.580;2024-02-26T06:08:09;8.40;1.00
46490;DHT22;32204;49.160;8.580;2024-02-26T06:10:34;8.40;1.00
46490;DHT22;32204;49.160;8.580;2024-02-26T06:13:00;8.30;1.00
46490;DHT22;32204;49.160;8.580;2024-02-26T06:15:26;8.30;1.00
46490;DHT22;32204;49.160;8.580;2024-02-26T06:17:51;8.20;1.00
46490;DHT22;32204;49.160;8.580;2024-02-26T06:20:17;8.10;1.00
46490;DHT22;32204;49.160;8.580;2024-02-26T06:22:42;8.10;1.00
46490;DHT22;32204;49.160;8.580;2024-02-26T06:25:08;8.00;15.70
46490;DHT22;32204;49.160;8.580;2024-02-26T06:27:34;8.00;54.40
46490;DHT22;32204;49.160;8.580;2024-02-26T06:30:00;7.90;99.90
46490;DHT22;32204;49.160;8.580;2024-02-26T06:32:26;7.80;99.90
46490;DHT22;32204;49.160;8.580;2024-02-26T06:34:55;7.90;99.90
46490;DHT22;32204;49.160;8.580;2024-02-26T06:37:20;7.90;99.90
46490;DHT22;32204;49.160;8.580;2024-02-26T06:39:46;7.90;99.90
46490;DHT22;32204;49.160;8.580;2024-02-26T06:42:12;7.90;99.90
46490;DHT22;32204;49.160;8.580;2024-02-26T06:44:37;7.90;99.90
46490;DHT22;32204;49.160;8.580;2024-02-26T06:47:03;7.80;99.90
46490;DHT22;32204;49.160;8.580;2024-02-26T06:49:29;7.90;99.90
46490;DHT22;32204;49.160;8.580;2024-02-26T06:51:55;7.80;99.90
46490;DHT22;32204;49.160;8.580;2024-02-26T06:54:21;7.80;99.90
46490;DHT22;32204;49.160;8.580;2024-02-26T06:56:46;7.90;99.90
46490;DHT22;32204;49.160;8.580;2024-02-26T06:59:12;7.80;99.90
46490;DHT22;32204;49.160;8.580;2024-02-26T07:01:41;7.80;99.90
46490;DHT22;32204;49.160;8.580;2024-02-26T07:04:07;7.80;99.90
46490;DHT22;32204;49.160;8.580;2024-02-26T07:06:32;7.70;99.90
46490;DHT22;32204;49.160;8.580;2024-02-26T07:08:58;7.80;99.90
46490;DHT22;32204;49.160;8.580;2024-02-26T07:11:23;7.80;99.90
46490;DHT22;32204;49.160;8.580;2024-02-26T07:13:49;7.80;99.90
46490;DHT22;32204;49.160;8.580;2024-02-26T07:16:15;7.80;99.90
46490;DHT22;32204;49.160;8.580;2024-02-26T07:18:41;7.80;99.90
46490;DHT22;32204;49.160;8.580;2024-02-26T07:21:07;7.80;99.90
46490;DHT22;32204;49.160;8.580;2024-02-26T07:23:33;7.90;99.90
46490;DHT22;32204;49.160;8.580;2024-02-26T07:25:59;7.90;99.90
46490;DHT22;32204;49.160;8.580;2024-02-26T07:28:25;7.90;99.90
46490;DHT22;32204;49.160;8.580;2024-02-26T07:30:50;7.90;99.90
46490;DHT22;32204;49.160;8.580;2024-02-26T07:33:16;7.80;99.90
46490;DHT22;32204;49.160;8.580;2024-02-26T07:35:42;7.80;99.90
46490;DHT22;32204;49.160;8.580;2024-02-26T07:38:07;7.80;99.90
46490;DHT22;32204;49.160;8.580;2024-02-26T07:40:33;7.80;99.90
46490;DHT22;32204;49.160;8.580;2024-02-26T07:42:58;7.80;99.90
46490;DHT22;32204;49.160;8.580;2024-02-26T07:45:24;7.90;99.90
46490;DHT22;32204;49.160;8.580;2024-02-26T07:47:50;7.90;99.90
46490;DHT22;32204;49.160;8.580;2024-02-26T07:50:17;7.90;99.90
46490;DHT22;32204;49.160;8.580;2024-02-26T07:52:43;8.00;99.90
46490;DHT22;32204;49.160;8.580;2024-02-26T07:55:09;8.00;99.90
46490;DHT22;32204;49.160;8.580;2024-02-26T07:57:35;8.00;99.90
46490;DHT22;32204;49.160;8.580;2024-02-26T08:00:04;8.00;99.90
46490;DHT22;32204;49.160;8.580;2024-02-26T08:02:32;8.10;99.90
46490;DHT22;32204;49.160;8.580;2024-02-26T08:04:59;8.10;99.90
46490;DHT22;32204;49.160;8.580;2024-02-26T08:07:25;8.10;99.90
46490;DHT22;32204;49.160;8.580;2024-02-26T08:09:50;8.10;99.90
46490;DHT22;32204;49.160;8.580;2024-02-26T08:12:16;8.10;99.90
46490;DHT22;32204;49.160;8.580;2024-02-26T08:14:42;8.20;99.90
46490;DHT22;32204;49.160;8.580;2024-02-26T08:17:09;8.20;99.90
46490;DHT22;32204;49.160;8.580;2024-02-26T08:19:35;8.20;99.90
46490;DHT22;32204;49.160;8.580;2024-02-26T08:22:02;8.20;99.90
46490;DHT22;32204;49.160;8.580;2024-02-26T08:24:28;8.10;99.90
46490;DHT22;32204;49.160;8.580;2024-02-26T08:26:53;8.10;99.90
46490;DHT22;32204;49.160;8.580;2024-02-26T08:29:19;8.20;99.90
46490;DHT22;32204;49.160;8.580;2024-02-26T08:31:45;8.20;99.90
46490;DHT22;32204;49.160;8.580;2024-02-26T08:34:10;8.20;99.90
46490;DHT22;32204;49.160;8.580;2024-02-26T08:36:36;8.20;99.90
46490;DHT22;32204;49.160;8.580;2024-02-26T08:39:02;8.20;99.90
46490;DHT22;32204;49.160;8.580;2024-02-26T08:41:27;8.30;99.90
46490;DHT22;32204;49.160;8.580;2024-02-26T08:43:53;8.30;99.90
46490;DHT22;32204;49.160;8.580;2024-02-26T08:46:20;8.40;99.90
46490;DHT22;32204;49.160;8.580;2024-02-26T08:48:45;8.50;99.90
46490;DHT22;32204;49.160;8.580;2024-02-26T08:51:11;8.60;99.90
46490;DHT22;32204;49.160;8.580;2024-02-26T08:53:36;8.60;80.70
46490;DHT22;32204;49.160;8.580;2024-02-26T08:56:02;8.70;99.60
46490;DHT22;32204;49.160;8.580;2024-02-26T08:58:28;8.80;41.80
46490;DHT22;32204;49.160;8.580;2024-02-26T09:00:54;8.90;1.00
46490;DHT22;32204;49.160;8.580;2024-02-26T09:03:20;8.90;1.00
46490;DHT22;32204;49.160;8.580;2024-02-26T09:05:46;8.90;1.00
46490;DHT22;32204;49.160;8.580;2024-02-26T09:08:12;9.00;1.00
46490;DHT22;32204;49.160;8.580;2024-02-26T09:10:38;9.00;1.00
46490;DHT22;32204;49.160;8.580;2024-02-26T09:13:04;9.00;1.00
46490;DHT22;32204;49.160;8.580;2024-02-26T09:15:30;9.10;1.00
46490;DHT22;32204;49.160;8.580;2024-02-26T09:17:56;9.10;1.00
46490;DHT22;32204;49.160;8.580;2024-02-26T09:20:21;9.20;1.00
46490;DHT22;32204;49.160;8.580;2024-02-26T09:22:49;9.30;99.90
46490;DHT22;32204;49.160;8.580;2024-02-26T09:25:15;9.20;1.00
46490;DHT22;32204;49.160;8.580;2024-02-26T09:27:43;9.20;99.90
46490;DHT22;32204;49.160;8.580;2024-02-26T09:30:10;9.10;99.90
46490;DHT22;32204;49.160;8.580;2024-02-26T09:32:37;9.10;1.00
46490;DHT22;32204;49.160;8.580;2024-02-26T09:35:03;9.10;99.90
46490;DHT22;32204;49.160;8.580;2024-02-26T09:37:28;9.10;99.90
46490;DHT22;32204;49.160;8.580;2024-02-26T09:39:54;9.20;1.00
46490;DHT22;32204;49.160;8.580;2024-02-26T09:42:20;9.20;1.00
46490;DHT22;32204;49.160;8.580;2024-02-26T09:44:46;9.20;99.90
46490;DHT22;32204;49.160;8.580;2024-02-26T09:47:14;9.20;99.90
46490;DHT22;32204;49.160;8.580;2024-02-26T09:49:42;9.30;99.90
46490;DHT22;32204;49.160;8.580;2024-02-26T09:52:08;9.40;99.90
46490;DHT22;32204;49.160;8.580;2024-02-26T09:54:35;9.40;99.90
46490;DHT22;32204;49.160;8.580;2024-02-26T09:57:02;9.50;99.90
46490;DHT22;32204;49.160;8.580;2024-02-26T09:59:29;9.50;1.00
46490;DHT22;32204;49.160;8.580;2024-02-26T10:02:00;9.60;48.60
46490;DHT22;32204;49.160;8.580;2024-02-26T10:04:26;9.60;3.20
46490;DHT22;32204;49.160;8.580;2024-02-26T10:06:52;9.60;1.00
46490;DHT22;32204;49.160;8.580;2024-02-26T10:09:19;9.60;1.00
46490;DHT22;32204;49.160;8.580;2024-02-26T10:11:47;9.60;1.00
46490;DHT22;32204;49.160;8.580;2024-02-26T10:14:14;9.50;1.00
46490;DHT22;32204;49.160;8.580;2024-02-26T10:16:41;9.60;58.90
46490;DHT22;32204;49.160;8.580;2024-02-26T10:19:06;9.70;1.00
46490;DHT22;32204;49.160;8.580;2024-02-26T10:21:32;9.70;99.90
46490;DHT22;32204;49.160;8.580;2024-02-26T10:23:58;9.60;1.00
46490;DHT22;32204;49.160;8.580;2024-02-26T10:26:23;9.70;92.20
46490;DHT22;32204;49.160;8.580;2024-02-26T10:28:49;9.80;99.90
46490;DHT22;32204;49.160;8.580;2024-02-26T10:31:15;9.80;99.90
46490;DHT22;32204;49.160;8.580;2024-02-26T10:33:41;9.80;1.00
46490;DHT22;32204;49.160;8.580;2024-02-26T10:36:08;9.90;1.00
46490;DHT22;32204;49.160;8.580;2024-02-26T10:38:35;9.90;99.90
46490;DHT22;32204;49.160;8.580;2024-02-26T10:41:05;10.00;91.20
46490;DHT22;32204;49.160;8.580;2024-02-26T10:43:31;10.20;1.00
46490;DHT22;32204;49.160;8.580;2024-02-26T10:45:57;10.30;1.00
46490;DHT22;32204;49.160;8.580;2024-02-26T10:48:23;10.40;99.90
46490;DHT22;32204;49.160;8.580;2024-02-26T10:50:49;10.50;17.00
46490;DHT22;32204;49.160;8.580;2024-02-26T10:53:29;10.50;1.00
46490;DHT22;32204;49.160;8.580;2024-02-26T10:55:58;10.40;1.00
46490;DHT22;32204;49.160;8.580;2024-02-26T10:58:26;10.50;99.90
46490;DHT22;32204;49.160;8.580;2024-02-26T11:00:52;10.50;97.40
46490;DHT22;32204;49.160;8.580;2024-02-26T11:03:19;10.60;99.90
46490;DHT22;32204;49.160;8.580;2024-02-26T11:05:49;10.60;99.90
46490;DHT22;32204;49.160;8.580;2024-02-26T11:08:18;10.80;51.50
46490;DHT22;32204;49.160;8.580;2024-02-26T11:10:45;10.90;50.90
46490;DHT22;32204;49.160;8.580;2024-02-26T11:13:12;10.90;1.00
46490;DHT22;32204;49.160;8.580;2024-02-26T11:15:40;10.90;1.00
46490;DHT22;32204;49.160;8.580;2024-02-26T11:18:07;10.90;99.90
46490;DHT22;32204;49.160;8.580;2024-02-26T11:20:33;11.10;99.90
46490;DHT22;32204;49.160;8.580;2024-02-26T11:23:00;11.20;99.90
46490;DHT22;32204;49.160;8.580;2024-02-26T11:25:25;11.20;99.90
46490;DHT22;32204;49.160;8.580;2024-02-26T11:27:56;11.20;99.90
46490;DHT22;32204;49.160;8.580;2024-02-26T11:30:25;11.00;99.90
46490;DHT22;32204;49.160;8.580;2024-02-26T11:32:52;11.10;1.00
46490;DHT22;32204;49.160;8.580;2024-02-26T11:35:19;11.30;19.10
46490;DHT22;32204;49.160;8.580;2024-02-26T11:37:57;11.60;1.00
46490;DHT22;32204;49.160;8.580;2024-02-26T11:40:24;11.90;99.90
46490;DHT22;32204;49.160;8.580;2024-02-26T11:42:50;12.00;99.90
46490;DHT22;32204;49.160;8.580;2024-02-26T11:45:57;12.10;99.90
46490;DHT22;32204;49.160;8.580;2024-02-26T11:48:25;12.30;99.90
46490;DHT22;32204;49.160;8.580;2024-02-26T11:50:55;12.10;9.40
46490;DHT22;32204;49.160;8.580;2024-02-26T11:53:31;12.00;99.90
46490;DHT22;32204;49.160;8.580;2024-02-26T11:58:45;12.10;55.80
46490;DHT22;32204;49.160;8.580;2024-02-26T12:04:12;12.20;1.00
46490;DHT22;32204;49.160;8.580;2024-02-26T12:06:51;12.20;99.90
46490;DHT22;32204;49.160;8.580;2024-02-26T12:09:40;12.20;99.90
46490;DHT22;32204;49.160;8.580;2024-02-26T12:12:08;12.30;1.00
46490;DHT22;32204;49.160;8.580;2024-02-26T12:14:51;12.40;1.00
46490;DHT22;32204;49.160;8.580;2024-02-26T12:17:22;12.40;99.90
46490;DHT22;32204;49.160;8.580;2024-02-26T12:19:48;12.60;1.00
46490;DHT22;32204;49.160;8.580;2024-02-26T12:22:14;12.70;17.10
46490;DHT22;32204;49.160;8.580;2024-02-26T12:24:45;12.80;1.00
46490;DHT22;32204;49.160;8.580;2024-02-26T12:27:11;12.80;99.90
46490;DHT22;32204;49.160;8.580;2024-02-26T12:29:37;13.00;99.90
46490;DHT22;32204;49.160;8.580;2024-02-26T12:32:04;13.20;99.90
46490;DHT22;32204;49.160;8.580;2024-02-26T12:34:31;13.30;99.90
46490;DHT22;32204;49.160;8.580;2024-02-26T12:36:57;13.30;99.90
46490;DHT22;32204;49.160;8.580;2024-02-26T12:39:23;13.30;99.90
46490;DHT22;32204;49.160;8.580;2024-02-26T12:41:49;13.50;99.90
46490;DHT22;32204;49.160;8.580;2024-02-26T12:44:24;13.40;99.90
46490;DHT22;32204;49.160;8.580;2024-02-26T12:46:49;13.50;1.00
46490;DHT22;32204;49.160;8.580;2024-02-26T12:49:15;13.50;1.00
46490;DHT22;32204;49.160;8.580;2024-02-26T12:51:44;13.40;1.00
46490;DHT22;32204;49.160;8.580;2024-02-26T12:54:09;13.40;1.00
46490;DHT22;32204;49.160;8.580;2024-02-26T12:56:35;13.50;95.00
46490;DHT22;32204;49.160;8.580;2024-02-26T12:59:02;13.60;1.00
46490;DHT22;32204;49.160;8.580;2024-02-26T13:01:29;13.70;1.00
46490;DHT22;32204;49.160;8.580;2024-02-26T13:03:56;13.90;1.00
46490;DHT22;32204;49.160;8.580;2024-02-26T13:06:22;13.90;1.00
46490;DHT22;32204;49.160;8.580;2024-02-26T13:08:48;13.80;99.90
46490;DHT22;32204;49.160;8.580;2024-02-26T13:11:14;13.80;99.90
46490;DHT22;32204;49.160;8.580;2024-02-26T13:13:40;13.90;99.90
46490;DHT22;32204;49.160;8.580;2024-02-26T13:16:07;13.90;99.90
46490;DHT22;32204;49.160;8.580;2024-02-26T13:18:34;13.80;99.90
46490;DHT22;32204;49.160;8.580;2024-02-26T13:21:10;13.80;99.90
46490;DHT22;32204;49.160;8.580;2024-02-26T13:23:37;13.80;99.90
46490;DHT22;32204;49.160;8.580;2024-02-26T13:26:03;13.80;99.90
46490;DHT22;32204;49.160;8.580;2024-02-26T13:28:29;13.90;99.90
46490;DHT22;32204;49.160;8.580;2024-02-26T13:30:55;13.90;99.90
46490;DHT22;32204;49.160;8.580;2024-02-26T13:33:27;14.10;99.90
46490;DHT22;32204;49.160;8.580;2024-02-26T13:35:53;14.20;99.90
46490;DHT22;32204;49.160;8.580;2024-02-26T13:38:19;14.20;99.90
46490;DHT22;32204;49.160;8.580;2024-02-26T13:40:45;14.10;99.90
46490;DHT22;32204;49.160;8.580;2024-02-26T13:43:10;14.10;99.90
46490;DHT22;32204;49.160;8.580;2024-02-26T13:45:37;14.10;99.90
46490;DHT22;32204;49.160;8.580;2024-02-26T13:48:05;14.10;99.90
46490;DHT22;32204;49.160;8.580;2024-02-26T13:50:31;14.10;99.90
46490;DHT22;32204;49.160;8.580;2024-02-26T13:52:56;14.00;99.90
46490;DHT22;32204;49.160;8.580;2024-02-26T13:55:26;14.00;99.90
46490;DHT22;32204;49.160;8.580;2024-02-26T13:57:56;14.10;99.90
46490;DHT22;32204;49.160;8.580;2024-02-26T14:00:22;14.10;99.90
46490;DHT22;32204;49.160;8.580;2024-02-26T14:02:48;14.10;99.90
46490;DHT22;32204;49.160;8.580;2024-02-26T14:05:14;14.00;99.90
46490;DHT22;32204;49.160;8.580;2024-02-26T14:07:40;14.00;99.90
46490;DHT22;32204;49.160;8.580;2024-02-26T14:10:06;14.00;99.90
46490;DHT22;32204;49.160;8.580;2024-02-26T14:12:32;13.90;99.90
46490;DHT22;32204;49.160;8.580;2024-02-26T14:14:58;13.90;99.90
46490;DHT22;32204;49.160;8.580;2024-02-26T14:17:28;14.00;99.90
46490;DHT22;32204;49.160;8.580;2024-02-26T14:19:54;14.10;99.90
46490;DHT22;32204;49.160;8.580;2024-02-26T14:22:19;14.20;99.90
46490;DHT22;32204;49.160;8.580;2024-02-26T14:24:45;14.20;99.90
46490;DHT22;32204;49.160;8.580;2024-02-26T14:27:13;14.20;99.90
46490;DHT22;32204;49.160;8.580;2024-02-26T14:29:43;14.40;99.90
46490;DHT22;32204;49.160;8.580;2024-02-26T14:32:09;14.50;99.90
46490;DHT22;32204;49.160;8.580;2024-02-26T14:34:35;14.60;99.90
46490;DHT22;32204;49.160;8.580;2024-02-26T14:37:00;14.70;99.90
46490;DHT22;32204;49.160;8.580;2024-02-26T14:39:26;14.50;99.90
46490;DHT22;32204;49.160;8.580;2024-02-26T14:41:52;14.50;99.90
46490;DHT22;32204;49.160;8.580;2024-02-26T14:44:17;14.50;99.90
46490;DHT22;32204;49.160;8.580;2024-02-26T14:46:43;14.50;99.90
46490;DHT22;32204;49.160;8.580;2024-02-26T14:49:11;14.40;99.90
46490;DHT22;32204;49.160;8.580;2024-02-26T14:51:38;14.50;99.90
46490;DHT22;32204;49.160;8.580;2024-02-26T14:54:04;14.50;99.90
46490;DHT22;32204;49.160;8.580;2024-02-26T14:56:29;14.50;99.90
46490;DHT22;32204;49.160;8.580;2024-02-26T14:58:55;14.50;99.90
46490;DHT22;32204;49.160;8.580;2024-02-26T15:01:21;14.50;99.90
46490;DHT22;32204;49.160;8.580;2024-02-26T15:03:48;14.60;99.90
46490;DHT22;32204;49.160;8.580;2024-02-26T15:06:13;14.60;99.90
46490;DHT22;32204;49.160;8.580;2024-02-26T15:08:39;14.60;99.90
46490;DHT22;32204;49.160;8.580;2024-02-26T15:11:04;14.80;99.90
46490;DHT22;32204;49.160;8.580;2024-02-26T15:13:30;14.80;99.90
46490;DHT22;32204;49.160;8.580;2024-02-26T15:15:56;14.70;99.90
46490;DHT22;32204;49.160;8.580;2024-02-26T15:18:22;14.70;99.90
46490;DHT22;32204;49.160;8.580;2024-02-26T15:20:47;14.60;99.90
46490;DHT22;32204;49.160;8.580;2024-02-26T15:23:13;14.60;99.90
46490;DHT22;32204;49.160;8.580;2024-02-26T15:25:39;14.60;99.90
46490;DHT22;32204;49.160;8.580;2024-02-26T15:28:07;14.50;99.90
46490;DHT22;32204;49.160;8.580;2024-02-26T15:30:32;14.60;99.90
46490;DHT22;32204;49.160;8.580;2024-02-26T15:32:59;14.70;99.90
46490;DHT22;32204;49.160;8.580;2024-02-26T15:35:25;14.90;99.90
46490;DHT22;32204;49.160;8.580;2024-02-26T15:37:51;14.80;99.90
46490;DHT22;32204;49.160;8.580;2024-02-26T15:40:18;14.90;99.90
46490;DHT22;32204;49.160;8.580;2024-02-26T15:42:45;15.00;99.90
46490;DHT22;32204;49.160;8.580;2024-02-26T15:45:11;15.00;99.90
46490;DHT22;32204;49.160;8.580;2024-02-26T15:47:36;15.00;99.90